Time;durP1;ratioP1;P1;durP2;ratioP2;P2;SDS_P1;SDS_P2;PMS_P1;PMS_P2;Temp;Humidity;BMP_temperature;BMP_pressure;BME280_temperature;BME280_humidity;BME280_pressure;Samples;Min_cycle;Max_cycle;Signal;HPM_P1;HPM_P2
2023/11/07 00:00:15;;;;;;;4.07;0.82;;;;;;;7.41;100.00;98483.94;5026528;28;20029;-75
2023/11/07 00:02:41;;;;;;;2.03;0.73;;;;;;;7.47;100.00;98495.78;5025103;28;20026;-76
2023/11/07 00:05:08;;;;;;;1.85;0.80;;;;;;;7.40;100.00;98478.72;5025347;28;20093;-76
2023/11/07 00:07:34;;;;;;;1.20;0.65;;;;;;;7.27;100.00;98467.81;5025357;28;20270;-76
2023/11/07 00:09:59;;;;;;;2.47;1.20;;;;;;;7.38;100.00;98492.34;5025165;28;20018;-76
2023/11/07 00:12:25;;;;;;;2.08;0.68;;;;;;;7.33;100.00;98494.78;5025007;28;20223;-77
2023/11/07 00:14:50;;;;;;;4.32;0.95;;;;;;;7.31;100.00;98475.31;5025080;28;20036;-77
2023/11/07 00:17:17;;;;;;;2.42;0.90;;;;;;;7.42;100.00;98492.81;5024898;28;20342;-76
2023/11/07 00:19:42;;;;;;;3.60;0.88;;;;;;;7.52;100.00;98498.72;5024753;28;20028;-76
2023/11/07 00:22:08;;;;;;;5.85;0.73;;;;;;;7.42;100.00;98485.56;5024829;28;20022;-76
2023/11/07 00:24:33;;;;;;;2.30;1.00;;;;;;;7.46;100.00;98492.22;5041773;28;20092;-77
2023/11/07 00:26:58;;;;;;;1.67;0.65;;;;;;;7.51;100.00;98502.44;5026750;28;20125;-76
2023/11/07 00:29:25;;;;;;;1.40;0.57;;;;;;;7.36;100.00;98483.66;5026283;28;20033;-76
2023/11/07 00:31:51;;;;;;;1.13;0.70;;;;;;;7.27;100.00;98481.28;5033118;28;20033;-77
2023/11/07 00:34:16;;;;;;;1.65;0.57;;;;;;;7.27;100.00;98494.72;5025973;28;20026;-76
2023/11/07 00:36:43;;;;;;;1.38;0.60;;;;;;;7.10;100.00;98492.25;5026257;28;20134;-77
2023/11/07 00:39:09;;;;;;;1.02;0.65;;;;;;;7.13;100.00;98510.72;5025913;28;20014;-77
2023/11/07 00:41:34;;;;;;;4.72;1.00;;;;;;;7.09;100.00;98495.97;5024303;28;20345;-77
2023/11/07 00:44:01;;;;;;;1.02;0.70;;;;;;;7.14;100.00;98506.16;5024212;28;20018;-77
2023/11/07 00:46:27;;;;;;;2.95;0.52;;;;;;;7.05;100.00;98493.81;5023258;28;20060;-77
2023/11/07 00:48:52;;;;;;;1.20;0.50;;;;;;;7.07;100.00;98495.31;5025765;28;20022;-76
2023/11/07 00:51:17;;;;;;;1.42;0.63;;;;;;;7.20;100.00;98500.88;5025310;28;20328;-78
2023/11/07 00:53:43;;;;;;;2.33;1.02;;;;;;;7.01;100.00;98480.75;5024192;28;20030;-77
2023/11/07 00:56:09;;;;;;;1.27;0.63;;;;;;;7.15;100.00;98505.97;5024145;28;20025;-77
2023/11/07 00:58:34;;;;;;;1.05;0.50;;;;;;;6.97;100.00;98500.19;5025624;28;20032;-76
2023/11/07 01:01:00;;;;;;;1.60;0.65;;;;;;;6.96;100.00;98509.25;5025104;28;20017;-77
2023/11/07 01:03:26;;;;;;;1.27;0.55;;;;;;;6.92;100.00;98514.19;5024906;28;20025;-76
2023/11/07 01:05:51;;;;;;;1.40;0.60;;;;;;;7.08;100.00;98517.69;5025098;28;20044;-77
2023/11/07 01:08:16;;;;;;;2.63;0.70;;;;;;;7.03;100.00;98486.78;5024103;28;20030;-77
2023/11/07 01:10:41;;;;;;;1.73;0.73;;;;;;;7.13;100.00;98499.94;5023845;28;20101;-77
2023/11/07 01:13:07;;;;;;;0.98;0.50;;;;;;;7.24;100.00;98499.44;5023869;28;20017;-76
2023/11/07 01:15:32;;;;;;;3.33;0.90;;;;;;;7.34;100.00;98509.94;5023365;28;20045;-76
2023/11/07 01:17:58;;;;;;;1.73;0.77;;;;;;;7.43;100.00;98510.63;5024999;28;20018;-76
2023/11/07 01:20:23;;;;;;;1.45;0.70;;;;;;;7.33;100.00;98485.88;5023671;28;20079;-77
2023/11/07 01:22:50;;;;;;;4.63;0.70;;;;;;;7.37;100.00;98490.69;5023615;28;20025;-75
2023/11/07 01:25:15;;;;;;;2.28;0.70;;;;;;;7.29;100.00;98481.91;5029968;28;20029;-76
2023/11/07 01:27:41;;;;;;;1.00;0.50;;;;;;;7.32;100.00;98495.00;5022975;28;20026;-76
2023/11/07 01:30:07;;;;;;;1.92;0.47;;;;;;;7.23;100.00;98496.94;5020600;28;20021;-76
2023/11/07 01:32:32;;;;;;;5.28;0.70;;;;;;;7.08;100.00;98485.41;5023074;28;20196;-76
2023/11/07 01:34:58;;;;;;;15.40;1.48;;;;;;;7.07;100.00;98494.47;5023433;28;20024;-76
2023/11/07 01:37:23;;;;;;;1.58;0.80;;;;;;;6.94;100.00;98489.75;5023151;28;20281;-75
2023/11/07 01:39:49;;;;;;;1.77;0.70;;;;;;;6.85;100.00;98472.09;5024611;28;20021;-76
2023/11/07 01:42:14;;;;;;;1.25;0.75;;;;;;;6.79;100.00;98484.44;5023066;28;20017;-77
2023/11/07 01:44:50;;;;;;;1.00;0.60;;;;;;;6.75;100.00;98504.63;5024331;28;20721;-77
2023/11/07 01:47:21;;;;;;;1.30;0.70;;;;;;;6.72;100.00;98516.59;5024274;28;20030;-75
2023/11/07 01:49:47;;;;;;;8.77;1.00;;;;;;;6.61;100.00;98509.00;5023438;28;20029;-75
2023/11/07 01:52:16;;;;;;;1.65;0.70;;;;;;;6.52;100.00;98481.38;5023016;28;20088;-75
2023/11/07 01:54:44;;;;;;;2.75;1.00;;;;;;;6.89;100.00;98509.19;5023097;28;20112;-76
2023/11/07 01:57:13;;;;;;;6.18;0.60;;;;;;;6.93;100.00;98488.94;5023801;28;20334;-79
2023/11/07 01:59:39;;;;;;;;;;;;;;;7.02;100.00;98503.09;5025228;28;20026;-76
2023/11/07 02:02:10;;;;;;;2.17;0.50;;;;;;;6.97;100.00;98495.63;5037618;28;19925;-75
2023/11/07 02:04:35;;;;;;;6.80;0.80;;;;;;;7.02;100.00;98511.19;5022471;28;20222;-76
2023/11/07 02:07:00;;;;;;;2.72;0.63;;;;;;;7.00;100.00;98510.56;5023723;28;20024;-76
2023/11/07 02:09:26;;;;;;;3.38;0.80;;;;;;;6.85;100.00;98502.50;5022699;28;20260;-77
2023/11/07 02:11:51;;;;;;;2.13;0.82;;;;;;;6.77;100.00;98497.22;5023236;28;20018;-77
2023/11/07 02:14:30;;;;;;;1.73;0.80;;;;;;;6.77;100.00;98506.09;5023789;28;20049;-77
2023/11/07 02:16:56;;;;;;;2.25;0.73;;;;;;;6.61;100.00;98500.94;5019517;28;20032;-77
2023/11/07 02:19:21;;;;;;;1.23;0.50;;;;;;;6.58;100.00;98490.56;5022638;28;20026;-77
2023/11/07 02:21:47;;;;;;;3.90;0.65;;;;;;;6.69;100.00;98510.75;5023739;28;20044;-77
2023/11/07 02:24:13;;;;;;;0.82;0.55;;;;;;;6.58;100.00;98479.81;5043769;28;20030;-77
2023/11/07 02:26:38;;;;;;;0.70;0.50;;;;;;;6.60;100.00;98491.19;5012576;28;20338;-77
2023/11/07 02:29:03;;;;;;;2.15;1.02;;;;;;;6.72;100.00;98505.84;5022976;28;20025;-77
2023/11/07 02:31:29;;;;;;;1.13;0.60;;;;;;;6.65;100.00;98504.91;5021967;28;20026;-77
2023/11/07 02:33:54;;;;;;;4.43;0.60;;;;;;;6.73;100.00;98494.06;5023432;28;20270;-76
2023/11/07 02:36:20;;;;;;;0.77;0.50;;;;;;;6.59;100.00;98484.16;5024588;28;20022;-75
2023/11/07 02:38:45;;;;;;;1.38;0.55;;;;;;;6.57;100.00;98496.94;5023125;28;20030;-76
2023/11/07 02:41:10;;;;;;;1.05;0.63;;;;;;;6.32;100.00;98443.47;5023513;28;20088;-76
2023/11/07 02:43:36;;;;;;;1.65;0.68;;;;;;;6.49;100.00;98480.91;5023530;28;20026;-76
2023/11/07 02:46:01;;;;;;;1.88;0.60;;;;;;;6.35;100.00;98479.88;5022029;28;20028;-77
2023/11/07 02:48:26;;;;;;;0.70;0.50;;;;;;;6.34;100.00;98484.44;5023140;28;20026;-75
2023/11/07 02:50:52;;;;;;;1.27;0.70;;;;;;;6.27;100.00;98488.88;5022014;28;20275;-76
2023/11/07 02:53:17;;;;;;;2.58;0.77;;;;;;;6.24;100.00;98494.59;5048728;28;20021;-76
2023/11/07 02:55:43;;;;;;;5.40;0.90;;;;;;;6.17;100.00;98482.91;5021572;28;20088;-76
2023/11/07 02:58:08;;;;;;;0.98;0.60;;;;;;;6.30;100.00;98507.28;5023303;28;20032;-76
2023/11/07 03:00:34;;;;;;;1.17;0.55;;;;;;;6.14;100.00;98477.91;5017356;28;20014;-76
2023/11/07 03:03:00;;;;;;;2.22;0.80;;;;;;;6.22;100.00;98493.94;5023019;28;20029;-76
2023/11/07 03:05:25;;;;;;;2.92;0.77;;;;;;;6.27;100.00;98494.22;5021598;28;20021;-76
2023/11/07 03:07:50;;;;;;;8.07;0.70;;;;;;;6.14;100.00;98484.13;5009135;28;20052;-76
2023/11/07 03:10:16;;;;;;;2.13;1.20;;;;;;;6.03;100.00;98479.19;5022963;28;20056;-77
2023/11/07 03:12:41;;;;;;;4.30;1.23;;;;;;;6.07;100.00;98493.09;5021651;28;20018;-77
2023/11/07 03:15:07;;;;;;;1.58;0.85;;;;;;;6.11;100.00;98495.22;5032466;28;20199;-76
2023/11/07 03:17:32;;;;;;;1.10;0.68;;;;;;;6.13;100.00;98512.00;5021635;28;20022;-75
2023/11/07 03:19:58;;;;;;;5.68;0.85;;;;;;;6.03;100.00;98507.91;5021568;28;20223;-77
2023/11/07 03:22:26;;;;;;;2.35;0.70;;;;;;;5.99;100.00;98509.28;5021553;28;20017;-77
2023/11/07 03:24:52;;;;;;;1.40;0.70;;;;;;;5.92;100.00;98496.56;5018768;28;20025;-76
2023/11/07 03:27:17;;;;;;;2.00;0.60;;;;;;;6.00;100.00;98501.06;5042647;28;20028;-77
2023/11/07 03:29:42;;;;;;;4.70;0.75;;;;;;;5.92;100.00;98480.44;5022580;28;20056;-77
2023/11/07 03:32:08;;;;;;;1.05;0.50;;;;;;;5.90;100.00;98482.47;5020701;28;20330;-78
2023/11/07 03:34:33;;;;;;;1.23;0.70;;;;;;;5.77;100.00;98468.81;5022564;28;20202;-76
2023/11/07 03:36:59;;;;;;;1.10;0.80;;;;;;;5.82;100.00;98473.66;5018226;28;20046;-77
2023/11/07 03:39:24;;;;;;;3.78;0.60;;;;;;;5.87;100.00;98488.19;5017937;28;20085;-77
2023/11/07 03:41:50;;;;;;;2.30;0.90;;;;;;;5.83;100.00;98488.75;5021152;28;20029;-76
2023/11/07 03:44:16;;;;;;;1.33;0.68;;;;;;;5.79;100.00;98490.97;5021365;28;20029;-76
2023/11/07 03:46:42;;;;;;;1.10;0.47;;;;;;;5.87;100.00;98501.63;5021045;28;20362;-77
2023/11/07 03:49:07;;;;;;;2.95;1.20;;;;;;;5.78;100.00;98489.28;5021588;28;20030;-76
2023/11/07 03:51:33;;;;;;;1.90;0.90;;;;;;;5.85;100.00;98494.78;5021043;28;20314;-75
2023/11/07 03:53:58;;;;;;;6.85;1.00;;;;;;;5.78;100.00;98489.28;5020974;28;20026;-76
2023/11/07 03:56:24;;;;;;;1.35;0.73;;;;;;;5.75;100.00;98473.53;5021064;28;20053;-76
2023/11/07 03:58:49;;;;;;;1.80;0.80;;;;;;;5.82;100.00;98474.50;5020949;28;20025;-76
2023/11/07 04:01:14;;;;;;;3.58;0.47;;;;;;;5.83;100.00;98484.19;5020485;28;20227;-76
2023/11/07 04:03:40;;;;;;;2.72;0.65;;;;;;;5.90;100.00;98492.38;5013541;28;20026;-77
2023/11/07 04:06:05;;;;;;;4.20;0.80;;;;;;;5.85;100.00;98495.59;5019272;28;20105;-75
2023/11/07 04:08:31;;;;;;;2.80;0.90;;;;;;;5.85;100.00;98494.78;5020418;28;20322;-77
2023/11/07 04:10:56;;;;;;;1.67;0.57;;;;;;;5.78;100.00;98494.63;5020708;28;20033;-76
2023/11/07 04:13:22;;;;;;;4.47;0.80;;;;;;;5.79;100.00;98496.34;5021918;28;20025;-76
2023/11/07 04:15:47;;;;;;;2.25;0.65;;;;;;;5.74;100.00;98477.25;5021411;28;20045;-76
2023/11/07 04:18:13;;;;;;;1.80;0.70;;;;;;;5.68;100.00;98477.94;5021130;28;20093;-77
2023/11/07 04:20:41;;;;;;;0.90;0.60;;;;;;;5.59;100.00;98476.34;5017647;28;20025;-77
2023/11/07 04:23:09;;;;;;;2.25;0.70;;;;;;;5.82;100.00;98514.75;5022039;28;20141;-78
2023/11/07 04:25:35;;;;;;;1.52;0.65;;;;;;;5.93;100.00;98510.81;5021907;28;20040;-75
2023/11/07 04:28:00;;;;;;;4.32;0.80;;;;;;;5.77;100.00;98498.34;5021576;28;20033;-78
2023/11/07 04:30:25;;;;;;;3.13;0.75;;;;;;;5.74;100.00;98501.41;5020741;28;20030;-76
2023/11/07 04:32:50;;;;;;;0.95;0.52;;;;;;;5.76;100.00;98499.34;5022210;28;20030;-77
2023/11/07 04:35:16;;;;;;;4.03;0.90;;;;;;;5.81;100.00;98504.19;5021388;28;20315;-76
2023/11/07 04:37:42;;;;;;;1.52;0.98;;;;;;;5.71;100.00;98494.53;5014972;28;20026;-76
2023/11/07 04:40:08;;;;;;;1.95;0.77;;;;;;;5.81;100.00;98520.28;5023169;28;20060;-77
2023/11/07 04:42:33;;;;;;;2.95;0.70;;;;;;;5.66;100.00;98502.28;5025744;28;20319;-76
2023/11/07 04:44:59;;;;;;;1.70;1.00;;;;;;;5.71;100.00;98504.41;5024871;28;20040;-76
2023/11/07 04:47:24;;;;;;;2.67;0.95;;;;;;;5.72;100.00;98506.09;5025081;28;20025;-77
2023/11/07 04:49:49;;;;;;;2.25;0.98;;;;;;;5.75;100.00;98497.69;5023707;28;20022;-76
2023/11/07 04:52:15;;;;;;;1.98;0.80;;;;;;;5.77;100.00;98495.66;5025608;28;20029;-78
2023/11/07 04:54:40;;;;;;;1.55;0.70;;;;;;;5.80;100.00;98492.63;5025292;28;20022;-76
2023/11/07 04:57:07;;;;;;;4.00;0.77;;;;;;;5.87;100.00;98504.31;5025358;28;20022;-75
2023/11/07 04:59:32;;;;;;;1.48;0.90;;;;;;;5.83;100.00;98486.06;5025321;28;20032;-77
2023/11/07 05:01:58;;;;;;;3.83;0.88;;;;;;;5.66;100.00;98464.72;5025095;28;20128;-76
2023/11/07 05:04:24;;;;;;;7.55;1.05;;;;;;;5.87;100.00;98495.44;5023950;28;20021;-77
2023/11/07 05:06:50;;;;;;;1.40;0.90;;;;;;;5.86;100.00;98488.38;5024166;28;20022;-76
2023/11/07 05:09:15;;;;;;;1.10;0.90;;;;;;;5.81;100.00;98485.38;5024050;28;20026;-76
2023/11/07 05:11:41;;;;;;;3.55;0.88;;;;;;;5.95;100.00;98502.59;5023938;28;20033;-76
2023/11/07 05:14:17;;;;;;;3.00;1.00;;;;;;;6.00;100.00;98502.88;5025907;28;20041;-82
2023/11/07 05:17:11;;;;;;;1.92;0.63;;;;;;;6.20;100.00;98504.03;5029940;28;20026;-82
2023/11/07 05:19:36;;;;;;;0.95;0.75;;;;;;;6.00;100.00;98482.25;5026789;28;20037;-79
2023/11/07 05:22:03;;;;;;;2.05;0.57;;;;;;;6.04;100.00;98498.81;5029978;28;20014;-86
2023/11/07 05:24:28;;;;;;;3.53;0.70;;;;;;;6.03;100.00;98507.91;5028464;28;20288;-85
2023/11/07 05:26:54;;;;;;;2.20;0.77;;;;;;;6.03;100.00;98507.91;5027282;28;20021;-85
2023/11/07 05:29:19;;;;;;;3.10;1.02;;;;;;;6.03;100.00;98505.22;5026788;28;20033;-84
2023/11/07 05:31:46;;;;;;;4.72;0.80;;;;;;;6.00;100.00;98514.47;5027999;28;20026;-81
2023/11/07 05:34:12;;;;;;;1.60;0.80;;;;;;;5.83;100.00;98478.00;5029311;28;20025;-83
2023/11/07 05:36:37;;;;;;;1.17;0.73;;;;;;;5.98;100.00;98496.88;5018996;28;20300;-82
2023/11/07 05:39:03;;;;;;;2.60;0.70;;;;;;;6.02;100.00;98490.09;5026968;28;20319;-84
2023/11/07 05:41:29;;;;;;;1.70;0.68;;;;;;;5.72;100.00;98439.00;5030369;28;20037;-83
2023/11/07 05:43:54;;;;;;;2.53;0.70;;;;;;;6.11;100.00;98499.78;5026868;28;20264;-83
2023/11/07 05:46:21;;;;;;;1.00;0.60;;;;;;;5.95;100.00;98462.31;5024696;28;20087;-77
2023/11/07 05:48:49;;;;;;;1.88;0.88;;;;;;;6.24;100.00;98494.59;5012361;28;20211;-78
2023/11/07 05:51:15;;;;;;;5.00;0.90;;;;;;;6.40;100.00;98515.09;5024226;28;20037;-77
2023/11/07 05:53:40;;;;;;;1.95;0.70;;;;;;;6.49;100.00;98508.59;5026342;28;20096;-82
2023/11/07 05:56:06;;;;;;;0.98;0.70;;;;;;;6.33;100.00;98482.75;5008973;28;20022;-82
2023/11/07 05:58:31;;;;;;;3.65;0.90;;;;;;;6.33;100.00;98487.28;5025554;28;20021;-84
2023/11/07 06:00:57;;;;;;;1.05;0.63;;;;;;;6.41;100.00;98486.38;5026314;28;20185;-78
2023/11/07 06:03:22;;;;;;;1.17;0.57;;;;;;;6.57;100.00;98510.38;5019122;28;20037;-76
2023/11/07 06:05:48;;;;;;;1.50;0.82;;;;;;;6.44;100.00;98492.19;5027823;28;20032;-80
2023/11/07 06:08:13;;;;;;;0.90;0.47;;;;;;;6.59;100.00;98501.09;5024535;28;20224;-75
2023/11/07 06:10:49;;;;;;;2.08;0.50;;;;;;;6.70;100.00;98510.56;5018632;28;20022;-82
2023/11/07 06:13:15;;;;;;;0.70;0.45;;;;;;;6.60;100.00;98483.13;5022511;28;20033;-78
2023/11/07 06:15:40;;;;;;;3.80;0.90;;;;;;;6.75;100.00;98516.22;5009457;28;20018;-79
2023/11/07 06:18:06;;;;;;;1.58;0.60;;;;;;;6.66;100.00;98509.28;5028797;28;20029;-84
2023/11/07 06:20:32;;;;;;;2.55;0.85;;;;;;;6.61;100.00;98490.19;5029123;28;20022;-83
2023/11/07 06:22:57;;;;;;;5.57;0.90;;;;;;;6.69;100.00;98503.53;5025360;28;20022;-76
2023/11/07 06:25:23;;;;;;;1.00;0.60;;;;;;;6.79;100.00;98504.06;5025404;28;20133;-85
2023/11/07 06:27:51;;;;;;;2.13;0.85;;;;;;;6.86;100.00;98509.53;5025032;28;20033;-78
2023/11/07 06:30:17;;;;;;;1.75;0.70;;;;;;;6.88;100.00;98503.97;5045262;28;20353;-78
2023/11/07 06:32:42;;;;;;;2.42;0.57;;;;;;;6.98;100.00;98509.91;5022669;28;20061;-77
2023/11/07 06:35:08;;;;;;;1.98;0.50;;;;;;;6.97;100.00;98509.06;5014564;28;20025;-77
2023/11/07 06:37:34;;;;;;;7.25;1.88;;;;;;;6.99;100.00;98504.31;5026099;28;20021;-79
2023/11/07 06:40:07;;;;;;;1.48;0.60;;;;;;;7.10;100.00;98505.72;5024207;28;20036;-79
2023/11/07 06:42:33;;;;;;;10.02;4.63;;;;;;;7.12;100.00;98509.03;5024205;28;20025;-77
2023/11/07 06:45:00;;;;;;;9.40;4.82;;;;;;;7.23;100.00;98511.25;5022358;28;20319;-77
2023/11/07 06:47:26;;;;;;;5.43;2.90;;;;;;;7.32;100.00;98495.00;5022317;28;20036;-78
2023/11/07 06:49:51;;;;;;;3.75;1.40;;;;;;;7.40;100.00;98497.56;5022152;28;20026;-78
2023/11/07 06:52:17;;;;;;;1.63;0.73;;;;;;;7.49;100.00;98493.72;5022666;28;20393;-82
2023/11/07 06:54:43;;;;;;;2.28;0.73;;;;;;;7.56;100.00;98483.84;5023563;28;20100;-78
2023/11/07 06:57:09;;;;;;;1.88;0.43;;;;;;;7.81;100.00;98451.16;5023654;28;20025;-77
2023/11/07 06:59:34;;;;;;;2.22;0.55;;;;;;;8.55;100.00;98473.06;5021779;28;20274;-78
2023/11/07 07:02:00;;;;;;;2.13;0.60;;;;;;;9.42;100.00;98495.03;5022900;28;20018;-81
2023/11/07 07:04:25;;;;;;;2.42;0.70;;;;;;;11.02;100.00;98482.28;5011203;28;20033;-78
2023/11/07 07:06:51;;;;;;;1.58;0.65;;;;;;;11.53;100.00;98473.31;5021643;28;20089;-73
2023/11/07 07:09:18;;;;;;;2.65;0.73;;;;;;;11.35;100.00;98473.19;5023106;28;20386;-73
2023/11/07 07:11:43;;;;;;;2.38;0.70;;;;;;;11.93;100.00;98491.22;5022783;28;20105;-72
2023/11/07 07:14:10;;;;;;;1.23;0.50;;;;;;;12.13;100.00;98482.91;5023269;28;20021;-72
2023/11/07 07:16:37;;;;;;;2.13;0.70;;;;;;;10.71;100.00;98489.25;5021678;28;20049;-72
2023/11/07 07:19:06;;;;;;;1.13;0.70;;;;;;;9.79;100.00;98501.75;5014043;28;20071;-72
2023/11/07 07:21:34;;;;;;;;;;;;;;;9.25;100.00;98494.56;5017661;28;20315;-72
2023/11/07 07:24:00;;;;;;;0.60;0.45;;;;;;;8.77;100.00;98499.94;5020888;28;19909;-73
2023/11/07 07:26:31;;;;;;;0.85;0.60;;;;;;;8.68;100.00;98512.75;5016079;28;20033;-71
2023/11/07 07:28:57;;;;;;;3.78;0.60;;;;;;;8.33;100.00;98534.28;5015686;28;20103;-74
2023/11/07 07:31:27;;;;;;;1.15;0.52;;;;;;;8.03;100.00;98517.44;5018569;28;20040;-71
2023/11/07 07:33:53;;;;;;;3.05;0.65;;;;;;;7.97;100.00;98523.59;5021377;28;20028;-72
2023/11/07 07:36:22;;;;;;;0.90;0.55;;;;;;;8.12;100.00;98518.97;5014093;28;20041;-72
2023/11/07 07:38:48;;;;;;;2.42;0.50;;;;;;;8.32;100.00;98532.59;5021922;28;20037;-74
2023/11/07 07:41:14;;;;;;;0.80;0.50;;;;;;;8.34;100.00;98519.75;5020473;28;20026;-77
2023/11/07 07:43:39;;;;;;;1.15;0.50;;;;;;;8.16;100.00;98518.59;5023500;28;20036;-76
2023/11/07 07:46:07;;;;;;;1.25;0.57;;;;;;;7.96;100.00;98530.00;5020337;28;20093;-76
2023/11/07 07:48:32;;;;;;;1.15;0.60;;;;;;;8.20;100.00;98544.09;5008872;28;20323;-76
2023/11/07 07:51:01;;;;;;;0.80;0.50;;;;;;;8.37;100.00;98534.72;5019370;28;20032;-77
2023/11/07 07:53:26;;;;;;;1.17;0.50;;;;;;;8.40;100.00;98520.03;5003194;28;20255;-74
2023/11/07 07:55:52;;;;;;;1.98;0.50;;;;;;;8.58;100.00;98531.16;5018577;28;20048;-77
2023/11/07 07:58:20;;;;;;;3.08;0.70;;;;;;;8.84;100.00;98526.97;5031943;28;20026;-76
2023/11/07 08:00:49;;;;;;;1.58;0.50;;;;;;;9.14;100.00;98525.66;5022629;28;20088;-75
2023/11/07 08:03:16;;;;;;;1.35;0.60;;;;;;;9.18;100.00;98532.31;5022525;28;20026;-76
2023/11/07 08:05:43;;;;;;;1.63;0.60;;;;;;;9.60;100.00;98527.69;5021372;28;20346;-78
2023/11/07 08:08:09;;;;;;;3.33;0.52;;;;;;;9.67;100.00;98516.91;5017479;28;20374;-78
2023/11/07 08:10:35;;;;;;;4.82;1.63;;;;;;;9.97;100.00;98530.03;5022528;28;20033;-76
2023/11/07 08:13:00;;;;;;;3.90;1.38;;;;;;;11.24;100.00;98528.88;5017563;28;20061;-83
2023/11/07 08:15:26;;;;;;;4.05;0.70;;;;;;;13.24;100.00;98508.31;5028960;28;20014;-82
2023/11/07 08:17:55;;;;;;;2.92;0.68;;;;;;;14.29;100.00;98505.16;5046656;28;20349;-76
2023/11/07 08:20:20;;;;;;;1.53;0.60;;;;;;;15.32;100.00;98503.66;5019698;28;20083;-76
2023/11/07 08:22:51;;;;;;;4.50;0.65;;;;;;;16.38;100.00;98514.09;5024295;28;20096;-74
2023/11/07 08:25:17;;;;;;;5.53;1.33;;;;;;;17.57;91.59;98511.13;5017503;28;20025;-76
2023/11/07 08:27:44;;;;;;;7.03;0.77;;;;;;;18.75;81.29;98518.56;5023986;28;20089;-73
2023/11/07 08:30:14;;;;;;;2.17;0.50;;;;;;;17.32;81.98;98526.16;5014311;28;20336;-73
2023/11/07 08:32:43;;;;;;;1.65;0.60;;;;;;;15.02;100.00;98536.56;5022959;28;20063;-72
2023/11/07 08:35:12;;;;;;;;;;;;;;;12.70;100.00;98537.91;5022321;28;20022;-73
2023/11/07 08:37:41;;;;;;;1.40;0.63;;;;;;;11.46;100.00;98542.94;5036144;28;19976;-75
2023/11/07 08:40:08;;;;;;;1.88;0.40;;;;;;;11.17;100.00;98547.00;5024733;28;20018;-75
2023/11/07 08:42:34;;;;;;;2.03;0.80;;;;;;;10.81;100.00;98542.09;5024456;28;20021;-75
2023/11/07 08:44:59;;;;;;;2.53;0.60;;;;;;;10.49;100.00;98536.53;5023200;28;20033;-75
2023/11/07 08:47:26;;;;;;;1.05;0.70;;;;;;;10.52;100.00;98541.53;5025591;28;20030;-75
2023/11/07 08:49:55;;;;;;;2.92;0.57;;;;;;;10.46;100.00;98545.06;5025467;28;20021;-75
2023/11/07 08:52:21;;;;;;;2.00;0.80;;;;;;;10.39;100.00;98549.66;5022514;28;20029;-75
2023/11/07 08:54:46;;;;;;;2.38;0.50;;;;;;;10.42;100.00;98557.34;5024769;28;20029;-76
2023/11/07 08:57:11;;;;;;;1.65;0.80;;;;;;;10.81;100.00;98542.94;5023626;28;20092;-75
2023/11/07 08:59:40;;;;;;;1.80;0.73;;;;;;;10.93;100.00;98546.66;5024943;28;20093;-75
2023/11/07 09:02:05;;;;;;;2.85;0.68;;;;;;;10.99;100.00;98533.31;5024022;28;20017;-76
2023/11/07 09:04:32;;;;;;;9.25;0.90;;;;;;;11.09;100.00;98542.66;5025412;28;20060;-75
2023/11/07 09:06:58;;;;;;;1.40;0.70;;;;;;;10.74;100.00;98540.25;5024954;28;20037;-75
2023/11/07 09:09:24;;;;;;;5.55;0.70;;;;;;;10.57;100.00;98552.53;5023860;28;20033;-76
2023/11/07 09:11:49;;;;;;;3.45;0.65;;;;;;;10.69;100.00;98547.34;5024192;28;20046;-75
2023/11/07 09:14:14;;;;;;;1.98;1.10;;;;;;;11.05;100.00;98552.25;5024809;28;20022;-75
2023/11/07 09:16:39;;;;;;;1.83;0.70;;;;;;;11.18;100.00;98541.38;5024120;28;20109;-76
2023/11/07 09:19:05;;;;;;;5.68;1.20;;;;;;;11.06;100.00;98566.63;5023942;28;20108;-75
2023/11/07 09:21:30;;;;;;;3.40;0.90;;;;;;;10.00;100.00;98576.41;5023966;28;20026;-76
2023/11/07 09:23:56;;;;;;;3.22;0.70;;;;;;;9.29;100.00;98587.59;5022927;28;20060;-76
2023/11/07 09:26:21;;;;;;;2.75;0.80;;;;;;;8.59;100.00;98543.59;5022610;28;20315;-75
2023/11/07 09:28:46;;;;;;;2.00;1.00;;;;;;;8.84;100.00;98587.13;5025483;28;20034;-75
2023/11/07 09:31:14;;;;;;;2.95;1.10;;;;;;;9.24;100.00;98594.63;5024916;28;20053;-75
2023/11/07 09:33:40;;;;;;;3.95;0.98;;;;;;;9.48;100.00;98612.19;5024061;28;20052;-75
2023/11/07 09:36:06;;;;;;;1.65;0.90;;;;;;;9.62;100.00;98600.41;5024658;28;20089;-75
2023/11/07 09:38:31;;;;;;;3.28;1.02;;;;;;;10.00;100.00;98597.19;5026108;28;20323;-76
2023/11/07 09:40:57;;;;;;;2.22;0.68;;;;;;;11.27;100.00;98576.34;5023706;28;20029;-75
2023/11/07 09:43:26;;;;;;;3.85;1.20;;;;;;;10.62;100.00;98608.72;5024212;28;20080;-76
2023/11/07 09:45:55;;;;;;;6.57;1.15;;;;;;;9.85;100.00;98600.06;5024045;28;20284;-75
2023/11/07 09:48:21;;;;;;;2.63;0.93;;;;;;;9.63;100.00;98593.97;5023112;28;20018;-75
2023/11/07 09:50:49;;;;;;;1.15;0.60;;;;;;;9.57;100.00;98590.22;5019854;28;20243;-75
2023/11/07 09:53:18;;;;;;;3.10;0.70;;;;;;;9.61;100.00;98602.25;5024907;28;20064;-75
2023/11/07 09:55:44;;;;;;;2.25;0.90;;;;;;;10.10;100.00;98603.88;5023349;28;20093;-75
2023/11/07 09:58:24;;;;;;;3.13;0.90;;;;;;;11.35;100.00;98578.81;5024645;28;20428;-75
2023/11/07 10:00:52;;;;;;;2.80;0.65;;;;;;;12.11;100.00;98563.66;5023781;28;20018;-75
2023/11/07 10:03:17;;;;;;;1.20;0.63;;;;;;;12.18;100.00;98569.84;5023324;28;20045;-74
2023/11/07 10:05:46;;;;;;;2.15;0.95;;;;;;;11.68;100.00;98548.84;5017723;28;20022;-75
2023/11/07 10:08:11;;;;;;;5.30;0.93;;;;;;;11.06;100.00;98577.47;5020620;28;20327;-75
2023/11/07 10:10:36;;;;;;;4.22;1.23;;;;;;;11.12;100.00;98566.59;5022217;28;20284;-75
2023/11/07 10:13:10;;;;;;;2.33;1.00;;;;;;;11.11;100.00;98569.53;5023293;28;20025;-75
2023/11/07 10:15:36;;;;;;;1.38;0.70;;;;;;;11.13;100.00;98538.50;5022815;28;20018;-76
2023/11/07 10:18:06;;;;;;;2.35;1.00;;;;;;;11.94;100.00;98569.59;5024164;28;20022;-75
2023/11/07 10:20:33;;;;;;;1.80;0.82;;;;;;;12.54;100.00;98557.47;5023145;28;20025;-75
2023/11/07 10:23:00;;;;;;;4.50;0.75;;;;;;;13.72;100.00;98550.97;5022347;28;20129;-73
2023/11/07 10:25:31;;;;;;;1.40;0.60;;;;;;;14.14;100.00;98545.56;5020579;28;20342;-73
2023/11/07 10:28:07;;;;;;;1.80;0.60;;;;;;;13.01;100.00;98536.97;5023556;28;20092;-75
2023/11/07 10:30:43;;;;;;;1.02;0.70;;;;;;;12.39;100.00;98555.94;5022192;28;20038;-73
2023/11/07 10:33:10;;;;;;;3.22;0.73;;;;;;;12.50;100.00;98552.50;5021811;28;20465;-73
2023/11/07 10:35:54;;;;;;;2.63;0.60;;;;;;;12.16;100.00;98553.00;5022986;28;20379;-73
2023/11/07 10:38:19;;;;;;;2.85;0.70;;;;;;;11.73;100.00;98532.78;5037317;28;20307;-73
2023/11/07 10:40:45;;;;;;;4.32;0.70;;;;;;;11.64;100.00;98555.78;5022883;28;20018;-76
2023/11/07 10:43:11;;;;;;;5.65;1.25;;;;;;;11.41;100.00;98542.75;5022774;28;20285;-74
2023/11/07 10:45:37;;;;;;;1.48;0.45;;;;;;;11.19;100.00;98551.16;5021734;28;20049;-73
2023/11/07 10:48:04;;;;;;;1.17;0.60;;;;;;;11.17;100.00;98541.59;5022439;28;20018;-74
2023/11/07 10:50:31;;;;;;;1.02;0.43;;;;;;;11.10;100.00;98538.06;5027104;28;20322;-73
2023/11/07 10:52:56;;;;;;;2.22;0.60;;;;;;;11.07;100.00;98539.31;5041942;28;20033;-73
2023/11/07 10:55:22;;;;;;;1.23;0.55;;;;;;;11.20;100.00;98549.28;5018685;28;20026;-73
2023/11/07 10:58:04;;;;;;;2.83;0.50;;;;;;;11.43;100.00;98529.81;5023168;28;20026;-73
2023/11/07 11:00:32;;;;;;;4.22;0.55;;;;;;;11.81;100.00;98542.53;5022107;28;20259;-73
2023/11/07 11:02:59;;;;;;;1.35;0.50;;;;;;;11.89;100.00;98538.75;5016366;28;20045;-74
2023/11/07 11:05:25;;;;;;;1.88;0.60;;;;;;;11.80;100.00;98522.75;5021920;28;20315;-74
2023/11/07 11:07:53;;;;;;;1.20;0.50;;;;;;;11.75;100.00;98513.59;5019783;28;20054;-74
2023/11/07 11:10:28;;;;;;;1.30;0.30;;;;;;;11.99;100.00;98529.09;5021910;28;20243;-74
2023/11/07 11:12:57;;;;;;;0.98;0.30;;;;;;;12.06;100.00;98535.31;5021324;28;20029;-73
2023/11/07 11:15:23;;;;;;;0.55;0.30;;;;;;;11.92;100.00;98531.06;5021945;28;20022;-74
2023/11/07 11:17:54;;;;;;;3.70;0.20;;;;;;;11.34;100.00;98521.13;5021362;28;20323;-73
2023/11/07 11:20:29;;;;;;;0.40;0.10;;;;;;;10.96;100.00;98523.75;5022041;28;20026;-76
2023/11/07 11:23:06;;;;;;;0.47;0.20;;;;;;;10.87;100.00;98535.84;5022266;28;20053;-74
2023/11/07 11:25:53;;;;;;;0.57;0.20;;;;;;;10.46;100.00;98550.47;5022519;28;20022;-76
2023/11/07 11:28:35;;;;;;;2.90;0.30;;;;;;;10.13;100.00;98566.66;5019100;28;20025;-76